createdAt,value
2022-09-12T00:01:16.367Z,3.10
2022-09-12T00:03:44.088Z,3.10
2022-09-12T00:06:24.172Z,3.30
2022-09-12T00:08:54.252Z,3.00
2022-09-12T00:11:21.933Z,3.08
2022-09-12T00:13:49.489Z,2.80
2022-09-12T00:16:20.596Z,3.30
2022-09-12T00:18:48.736Z,2.90
2022-09-12T00:21:17.929Z,3.08
2022-09-12T00:23:46.518Z,3.05
2022-09-12T00:26:14.441Z,3.22
2022-09-12T00:28:42.857Z,2.83
2022-09-12T00:31:13.907Z,2.95
2022-09-12T00:33:41.837Z,2.90
2022-09-12T00:36:16.482Z,2.60
2022-09-12T00:38:45.283Z,3.08
2022-09-12T00:41:16.067Z,2.75
2022-09-12T00:43:47.196Z,2.60
2022-09-12T00:46:19.894Z,2.92
2022-09-12T00:48:52.107Z,2.67
2022-09-12T00:51:20.177Z,2.83
2022-09-12T00:53:51.693Z,2.67
2022-09-12T00:56:20.442Z,2.40
2022-09-12T00:59:03.500Z,3.17
2022-09-12T01:01:32.789Z,2.80
2022-09-12T01:04:02.013Z,2.80
2022-09-12T01:06:36.669Z,3.05
2022-09-12T01:09:05.133Z,3.42
2022-09-12T01:11:38.721Z,2.80
2022-09-12T01:14:07.506Z,2.60
2022-09-12T01:16:38.706Z,3.00
2022-09-12T01:19:29.459Z,2.70
2022-09-12T01:22:34.798Z,2.75
2022-09-12T01:25:20.696Z,2.65
2022-09-12T01:28:06.719Z,3.05
2022-09-12T01:31:01.035Z,2.63
2022-09-12T01:34:10.624Z,3.00
2022-09-12T01:37:17.335Z,3.10
2022-09-12T01:40:16.392Z,2.75
2022-09-12T01:43:17.537Z,2.55
2022-09-12T01:46:02.019Z,2.65
2022-09-12T01:49:14.045Z,2.40
2022-09-12T01:51:54.613Z,2.63
2022-09-12T01:54:47.329Z,2.80
2022-09-12T01:57:22.600Z,2.50
2022-09-12T01:59:54.738Z,2.90
2022-09-12T02:02:36.930Z,2.65
2022-09-12T02:05:16.711Z,2.95
2022-09-12T02:07:57.331Z,2.75
2022-09-12T02:10:32.546Z,2.95
2022-09-12T02:13:10.730Z,2.72
2022-09-12T02:15:47.833Z,2.30
2022-09-12T02:18:18.489Z,2.65
2022-09-12T02:20:49.242Z,2.50
2022-09-12T02:23:31.124Z,2.60
2022-09-12T02:26:06.893Z,2.92
2022-09-12T02:28:40.443Z,2.60
2022-09-12T02:31:39.892Z,2.72
2022-09-12T02:34:27.940Z,2.55
2022-09-12T02:37:13.971Z,2.58
2022-09-12T02:39:45.152Z,2.92
2022-09-12T02:42:15.227Z,2.22
2022-09-12T02:44:43.472Z,2.53
2022-09-12T02:47:27.455Z,2.72
2022-09-12T02:49:55.966Z,3.22
2022-09-12T02:52:23.440Z,2.80
2022-09-12T02:54:52.065Z,2.72
2022-09-12T02:57:23.229Z,2.95
2022-09-12T02:59:54.600Z,2.55
2022-09-12T03:02:28.462Z,2.65
2022-09-12T03:05:08.615Z,2.80
2022-09-12T03:07:42.747Z,2.72
2022-09-12T03:10:39.552Z,2.58
2022-09-12T03:13:22.077Z,2.45
2022-09-12T03:16:13.197Z,2.75
2022-09-12T03:19:12.863Z,2.42
2022-09-12T03:22:03.427Z,2.80
2022-09-12T03:24:37.816Z,2.70
2022-09-12T03:27:16.490Z,2.80
2022-09-12T03:29:46.451Z,2.63
2022-09-12T03:32:14.632Z,2.67
2022-09-12T03:34:42.000Z,2.70
2022-09-12T03:37:09.572Z,2.70
2022-09-12T03:39:37.189Z,2.75
2022-09-12T03:42:04.769Z,2.53
2022-09-12T03:44:32.493Z,2.70
2022-09-12T03:46:59.872Z,2.88
2022-09-12T03:49:27.239Z,2.53
2022-09-12T03:51:54.683Z,2.80
2022-09-12T03:54:22.177Z,2.90
2022-09-12T03:56:49.543Z,2.50
2022-09-12T03:59:17.012Z,2.33
2022-09-12T04:01:44.354Z,2.30
2022-09-12T04:04:12.124Z,2.40
2022-09-12T04:06:39.639Z,2.80
2022-09-12T04:09:06.971Z,2.97
2022-09-12T04:11:35.932Z,2.78
2022-09-12T04:14:03.342Z,2.80
2022-09-12T04:16:30.855Z,3.10
2022-09-12T04:18:58.370Z,3.10
2022-09-12T04:21:26.834Z,3.30
2022-09-12T04:23:54.246Z,3.40
2022-09-12T04:26:21.819Z,2.75
2022-09-12T04:28:53.785Z,3.25
2022-09-12T04:31:22.796Z,2.78
2022-09-12T04:33:58.560Z,2.70
2022-09-12T04:36:27.090Z,2.28
2022-09-12T04:38:55.299Z,3.33
2022-09-12T04:41:25.650Z,2.83
2022-09-12T04:43:59.046Z,3.08
2022-09-12T04:46:27.125Z,2.80
2022-09-12T04:48:56.998Z,3.10
2022-09-12T04:51:36.699Z,3.15
2022-09-12T04:54:07.166Z,2.97
2022-09-12T04:56:39.972Z,3.22
2022-09-12T04:59:09.394Z,3.03
2022-09-12T05:01:37.341Z,3.40
2022-09-12T05:04:06.402Z,3.63
2022-09-12T05:06:56.677Z,3.30
2022-09-12T05:09:37.025Z,3.00
2022-09-12T05:12:07.036Z,3.05
2022-09-12T05:14:35.637Z,3.15
2022-09-12T05:17:27.661Z,3.05
2022-09-12T05:19:57.151Z,3.33
2022-09-12T05:22:26.559Z,3.30
2022-09-12T05:24:54.401Z,3.28
2022-09-12T05:27:22.335Z,3.42
2022-09-12T05:29:51.498Z,3.10
2022-09-12T05:32:55.990Z,3.30
2022-09-12T05:35:26.296Z,2.83
2022-09-12T05:37:54.323Z,3.35
2022-09-12T05:40:22.432Z,3.45
2022-09-12T05:42:52.490Z,4.40
2022-09-12T05:45:24.400Z,3.70
2022-09-12T05:47:52.266Z,3.67
2022-09-12T05:50:25.479Z,3.80
2022-09-12T05:52:55.579Z,3.60
2022-09-12T05:55:25.215Z,3.90
2022-09-12T05:57:57.257Z,3.40
2022-09-12T06:00:31.532Z,3.70
2022-09-12T06:05:54.037Z,3.42
2022-09-12T06:08:29.179Z,3.50
2022-09-12T06:11:10.069Z,3.75
2022-09-12T06:13:40.605Z,3.88
2022-09-12T06:19:09.655Z,3.40
2022-09-12T06:24:18.354Z,3.67
2022-09-12T06:27:30.274Z,3.40
2022-09-12T06:32:49.552Z,3.50
2022-09-12T06:35:22.333Z,3.22
2022-09-12T06:37:53.544Z,3.20
2022-09-12T06:41:35.181Z,3.33
2022-09-12T06:44:07.854Z,3.17
2022-09-12T06:50:56.204Z,3.15
2022-09-12T06:53:28.157Z,2.70
2022-09-12T06:55:57.911Z,3.42
2022-09-12T06:58:26.905Z,3.22
2022-09-12T07:01:12.165Z,2.80
2022-09-12T07:03:40.632Z,3.05
2022-09-12T07:06:13.605Z,3.03
2022-09-12T07:08:41.834Z,2.70
2022-09-12T07:11:12.877Z,2.90
2022-09-12T07:13:42.067Z,2.92
2022-09-12T07:16:10.859Z,2.80
2022-09-12T07:22:31.625Z,3.30
2022-09-12T07:25:00.371Z,2.67
2022-09-12T07:27:39.632Z,3.03
2022-09-12T07:32:46.414Z,2.92
2022-09-12T07:38:06.417Z,2.90
2022-09-12T07:40:40.976Z,3.13
2022-09-12T07:43:34.054Z,3.10
2022-09-12T07:46:37.412Z,3.25
2022-09-12T07:49:29.587Z,2.78
2022-09-12T07:51:57.552Z,2.88
2022-09-12T07:54:25.627Z,2.83
2022-09-12T07:56:56.938Z,2.95
2022-09-12T07:59:50.819Z,2.88
2022-09-12T08:02:17.223Z,2.97
2022-09-12T08:04:45.440Z,3.25
2022-09-12T08:07:26.838Z,3.30
2022-09-12T08:09:58.113Z,2.85
2022-09-12T08:12:56.795Z,2.95
2022-09-12T08:18:50.254Z,2.78
2022-09-12T08:21:50.972Z,2.75
2022-09-12T08:24:27.176Z,2.47
2022-09-12T08:26:57.059Z,3.10
2022-09-12T08:42:51.320Z,2.60
2022-09-12T08:45:54.142Z,2.10
2022-09-12T08:48:43.726Z,2.38
2022-09-12T08:51:14.333Z,2.70
2022-09-12T08:53:45.200Z,2.95
2022-09-12T08:56:15.132Z,2.80
2022-09-12T08:58:46.457Z,2.85
2022-09-12T09:01:53.744Z,2.88
2022-09-12T09:04:45.585Z,2.63
2022-09-12T09:07:28.156Z,2.75
2022-09-12T09:10:19.526Z,2.35
2022-09-12T09:13:06.453Z,2.38
2022-09-12T09:16:42.422Z,2.03
2022-09-12T09:19:37.841Z,2.10
2022-09-12T09:22:15.418Z,2.35
2022-09-12T09:25:22.709Z,2.22
2022-09-12T09:28:11.337Z,1.95
2022-09-12T09:30:43.073Z,2.60
2022-09-12T09:33:22.119Z,2.55
2022-09-12T09:40:05.430Z,2.67
2022-09-12T09:43:02.777Z,2.33
2022-09-12T09:45:31.310Z,2.30
2022-09-12T09:47:59.552Z,2.63
2022-09-12T10:02:34.988Z,2.67
2022-09-12T10:05:04.700Z,2.67
2022-09-12T10:07:33.766Z,2.45
2022-09-12T10:10:39.205Z,2.20
2022-09-12T10:13:11.669Z,2.50
2022-09-12T10:16:20.385Z,2.60
2022-09-12T10:19:11.337Z,2.72
2022-09-12T10:21:59.924Z,2.70
2022-09-12T10:24:48.320Z,2.80
2022-09-12T10:27:22.194Z,2.78
2022-09-12T10:30:07.231Z,2.88
2022-09-12T10:35:46.349Z,2.65
2022-09-12T10:38:35.559Z,2.85
2022-09-12T10:41:11.549Z,2.78
2022-09-12T10:43:48.684Z,2.40
2022-09-12T10:46:16.956Z,2.58
2022-09-12T11:08:06.133Z,2.70
2022-09-12T11:29:47.855Z,3.08
2022-09-12T11:32:46.865Z,2.80
2022-09-12T11:36:08.726Z,3.85
2022-09-12T11:39:13.601Z,2.78
2022-09-12T11:41:50.583Z,3.08
2022-09-12T11:44:40.018Z,2.72
2022-09-12T11:47:12.663Z,3.00
2022-09-12T11:49:54.918Z,2.78
2022-09-12T11:52:33.928Z,2.70
2022-09-12T11:55:08.755Z,3.05
2022-09-12T11:57:49.449Z,2.80
2022-09-12T12:00:21.527Z,2.92
2022-09-12T12:03:11.319Z,2.65
2022-09-12T12:06:00.038Z,2.40
2022-09-12T12:08:32.418Z,2.58
2022-09-12T12:11:07.845Z,2.95
2022-09-12T12:13:58.853Z,2.55
2022-09-12T12:16:38.960Z,2.33
2022-09-12T12:19:15.912Z,2.42
2022-09-12T12:21:44.238Z,2.50
2022-09-12T12:24:25.829Z,2.25
2022-09-12T12:27:00.004Z,2.40
2022-09-12T12:29:44.086Z,2.30
2022-09-12T12:32:11.896Z,2.53
2022-09-12T12:34:42.821Z,2.47
2022-09-12T12:37:19.148Z,2.20
2022-09-12T12:39:55.446Z,2.20
2022-09-12T12:42:35.108Z,1.80
2022-09-12T12:45:23.777Z,1.90
2022-09-12T12:47:58.087Z,1.92
2022-09-12T12:50:28.576Z,1.65
2022-09-12T12:53:05.372Z,1.95
2022-09-12T12:55:47.561Z,2.08
2022-09-12T12:58:37.463Z,2.00
2022-09-12T13:01:17.916Z,1.52
2022-09-12T13:03:55.887Z,1.80
2022-09-12T13:06:31.553Z,1.60
2022-09-12T13:09:06.683Z,1.70
2022-09-12T13:11:40.811Z,1.70
2022-09-12T13:14:35.825Z,1.70
2022-09-12T13:17:06.747Z,1.65
2022-09-12T13:19:37.429Z,1.50
2022-09-12T13:22:09.845Z,1.42
2022-09-12T13:24:49.326Z,1.60
2022-09-12T13:27:25.907Z,1.40
2022-09-12T13:30:14.846Z,1.50
2022-09-12T13:32:43.831Z,1.55
2022-09-12T13:35:27.557Z,1.50
2022-09-12T13:38:22.083Z,1.48
2022-09-12T13:41:15.836Z,1.60
2022-09-12T13:43:47.249Z,1.60
2022-09-12T13:46:20.538Z,1.40
2022-09-12T13:48:50.794Z,1.42
2022-09-12T13:51:28.930Z,1.30
2022-09-12T13:54:00.191Z,1.45
2022-09-12T13:56:27.534Z,1.30
2022-09-12T13:59:03.119Z,1.35
2022-09-12T14:01:42.723Z,1.20
2022-09-12T14:04:37.570Z,1.10
2022-09-12T14:07:20.806Z,1.30
2022-09-12T14:09:59.719Z,1.10
2022-09-12T14:12:43.579Z,1.30
2022-09-12T14:15:30.614Z,1.23
2022-09-12T14:18:01.839Z,1.23
2022-09-12T14:20:37.300Z,1.20
2022-09-12T14:23:33.319Z,1.13
2022-09-12T14:26:03.635Z,1.40
2022-09-12T14:28:33.191Z,1.38
2022-09-12T14:31:05.214Z,1.38
2022-09-12T14:33:47.360Z,1.40
2022-09-12T14:36:58.197Z,1.20
2022-09-12T14:39:42.939Z,1.50
2022-09-12T14:42:36.451Z,1.38
2022-09-12T14:45:18.268Z,1.23
2022-09-12T14:47:50.813Z,1.13
2022-09-12T14:50:22.955Z,1.33
2022-09-12T14:53:07.540Z,1.38
2022-09-12T14:55:42.400Z,1.00
2022-09-12T14:58:26.735Z,1.10
2022-09-12T15:01:21.273Z,0.90
2022-09-12T15:03:52.123Z,1.00
2022-09-12T15:06:29.723Z,0.98
2022-09-12T15:09:03.353Z,0.90
2022-09-12T15:11:30.909Z,1.10
2022-09-12T15:13:59.823Z,1.00
2022-09-12T15:16:27.363Z,0.77
2022-09-12T15:18:55.110Z,0.95
2022-09-12T15:21:22.776Z,0.80
2022-09-12T15:23:51.608Z,1.05
2022-09-12T15:26:24.435Z,0.70
2022-09-12T15:28:53.716Z,0.80
2022-09-12T15:31:28.559Z,0.80
2022-09-12T15:33:58.591Z,0.95
2022-09-12T15:36:27.600Z,0.70
2022-09-12T15:38:55.466Z,0.80
2022-09-12T15:41:31.742Z,0.90
2022-09-12T15:43:59.557Z,0.70
2022-09-12T15:46:27.194Z,1.00
2022-09-12T15:48:54.710Z,0.80
2022-09-12T15:51:22.993Z,0.93
2022-09-12T15:53:51.858Z,0.95
2022-09-12T15:56:21.496Z,0.80
2022-09-12T15:58:58.655Z,0.90
2022-09-12T16:01:28.096Z,0.98
2022-09-12T16:03:55.790Z,0.90
2022-09-12T16:06:23.729Z,1.08
2022-09-12T16:08:51.437Z,1.08
2022-09-12T16:11:25.237Z,0.90
2022-09-12T16:13:54.091Z,0.80
2022-09-12T16:16:22.382Z,1.00
2022-09-12T16:18:50.268Z,1.05
2022-09-12T16:21:18.348Z,1.05
2022-09-12T16:23:47.196Z,0.85
2022-09-12T16:26:16.084Z,1.10
2022-09-12T16:28:43.914Z,1.00
2022-09-12T16:31:14.155Z,1.10
2022-09-12T16:33:42.023Z,1.20
2022-09-12T16:36:14.849Z,0.90
2022-09-12T16:38:44.602Z,1.15
2022-09-12T16:41:12.912Z,1.15
2022-09-12T16:43:40.639Z,1.10
2022-09-12T16:46:17.289Z,1.10
2022-09-12T16:48:52.313Z,0.90
2022-09-12T16:51:26.328Z,1.10
2022-09-12T16:53:55.355Z,1.10
2022-09-12T16:56:23.761Z,1.10
2022-09-12T16:58:52.364Z,1.10
2022-09-12T17:01:23.461Z,1.08
2022-09-12T17:03:56.372Z,1.20
2022-09-12T17:06:25.386Z,1.10
2022-09-12T17:08:54.805Z,1.10
2022-09-12T17:11:34.831Z,1.30
2022-09-12T17:14:06.893Z,1.00
2022-09-12T17:16:37.478Z,1.10
2022-09-12T17:19:05.982Z,1.20
2022-09-12T17:21:34.675Z,0.98
2022-09-12T17:24:02.583Z,1.10
2022-09-12T17:26:30.343Z,1.52
2022-09-12T17:28:58.022Z,1.05
2022-09-12T17:31:25.760Z,1.10
2022-09-12T17:33:59.894Z,1.20
2022-09-12T17:36:28.449Z,1.05
2022-09-12T17:38:56.333Z,1.17
2022-09-12T17:41:26.158Z,1.10
2022-09-12T17:43:57.478Z,1.20
2022-09-12T17:46:35.373Z,1.20
2022-09-12T17:49:12.198Z,1.15
2022-09-12T17:51:40.610Z,1.30
2022-09-12T17:54:12.200Z,1.20
2022-09-12T17:56:40.405Z,1.23
2022-09-12T17:59:11.195Z,1.00
2022-09-12T18:01:57.682Z,1.23
2022-09-12T18:04:25.410Z,1.05
2022-09-12T18:06:53.327Z,1.25
2022-09-12T18:09:23.651Z,1.25
2022-09-12T18:11:52.309Z,1.23
2022-09-12T18:14:22.213Z,1.30
2022-09-12T18:16:50.242Z,1.27
2022-09-12T18:19:17.950Z,1.40
2022-09-12T18:21:46.353Z,1.50
2022-09-12T18:24:14.416Z,1.33
2022-09-12T18:26:43.896Z,2.35
2022-09-12T18:29:12.598Z,1.48
2022-09-12T18:31:40.203Z,1.40
2022-09-12T18:34:12.767Z,1.70
2022-09-12T18:36:45.353Z,1.65
2022-09-12T18:39:14.293Z,1.45
2022-09-12T18:41:42.273Z,1.83
2022-09-12T18:44:12.949Z,1.55
2022-09-12T18:46:40.462Z,1.73
2022-09-12T18:49:09.519Z,1.60
2022-09-12T18:51:37.601Z,1.60
2022-09-12T18:54:08.920Z,1.77
2022-09-12T18:56:38.695Z,1.80
2022-09-12T18:59:07.496Z,1.70
2022-09-12T19:01:37.329Z,1.70
2022-09-12T19:04:07.945Z,1.60
2022-09-12T19:06:38.694Z,1.85
2022-09-12T19:09:08.408Z,1.55
2022-09-12T19:11:38.680Z,1.67
2022-09-12T19:14:07.800Z,1.50
2022-09-12T19:16:35.673Z,1.65
2022-09-12T19:19:03.719Z,1.38
2022-09-12T19:21:33.426Z,1.60
2022-09-12T19:24:06.804Z,1.30
2022-09-12T19:26:34.863Z,1.50
2022-09-12T19:29:03.438Z,1.35
2022-09-12T19:31:32.093Z,1.45
2022-09-12T19:34:04.113Z,1.38
2022-09-12T19:36:48.117Z,1.40
2022-09-12T19:39:20.007Z,1.48
2022-09-12T19:41:48.063Z,1.70
2022-09-12T19:44:15.558Z,1.50
2022-09-12T19:46:43.203Z,1.60
2022-09-12T19:49:12.359Z,1.40
2022-09-12T19:51:40.128Z,1.35
2022-09-12T19:54:08.027Z,1.20
2022-09-12T19:56:35.471Z,1.30
2022-09-12T19:59:03.027Z,1.38
2022-09-12T20:01:30.747Z,1.60
2022-09-12T20:03:59.263Z,1.50
2022-09-12T20:06:27.666Z,1.50
2022-09-12T20:08:56.443Z,1.48
2022-09-12T20:11:24.759Z,1.67
2022-09-12T20:13:55.695Z,1.40
2022-09-12T20:16:29.369Z,1.38
2022-09-12T20:19:01.860Z,1.50
2022-09-12T20:21:32.341Z,1.58
2022-09-12T20:24:02.246Z,1.30
2022-09-12T20:26:30.869Z,1.80
2022-09-12T20:28:58.724Z,1.90
2022-09-12T20:31:26.323Z,1.60
2022-09-12T20:33:54.918Z,1.60
2022-09-12T20:36:22.439Z,2.55
2022-09-12T20:38:57.029Z,1.58
2022-09-12T20:41:28.826Z,1.50
2022-09-12T20:43:57.075Z,1.75
2022-09-12T20:46:26.213Z,1.70
2022-09-12T20:48:58.635Z,1.23
2022-09-12T20:51:26.901Z,1.55
2022-09-12T20:53:55.305Z,1.38
2022-09-12T20:56:23.854Z,1.30
2022-09-12T20:58:51.831Z,1.30
2022-09-12T21:01:20.206Z,1.23
2022-09-12T21:03:48.536Z,1.02
2022-09-12T21:06:17.156Z,1.15
2022-09-12T21:08:46.636Z,1.17
2022-09-12T21:11:15.550Z,1.17
2022-09-12T21:13:43.391Z,1.15
2022-09-12T21:16:20.425Z,1.15
2022-09-12T21:18:52.608Z,1.10
2022-09-12T21:21:20.085Z,1.23
2022-09-12T21:23:48.108Z,1.20
2022-09-12T21:26:15.700Z,1.40
2022-09-12T21:28:43.272Z,1.23
2022-09-12T21:31:10.784Z,1.40
2022-09-12T21:33:38.441Z,1.08
2022-09-12T21:36:07.256Z,1.10
2022-09-12T21:38:35.115Z,1.30
2022-09-12T21:41:07.636Z,1.25
2022-09-12T21:43:35.942Z,1.25
2022-09-12T21:46:04.854Z,1.52
2022-09-12T21:48:32.940Z,2.05
2022-09-12T21:51:00.650Z,1.30
2022-09-12T21:53:28.467Z,1.40
2022-09-12T21:56:03.013Z,1.40
2022-09-12T21:58:30.643Z,1.40
2022-09-12T22:00:58.173Z,1.30
2022-09-12T22:03:26.692Z,1.30
2022-09-12T22:06:02.986Z,1.50
2022-09-12T22:08:32.038Z,1.20
2022-09-12T22:11:02.377Z,1.20
2022-09-12T22:13:34.009Z,1.27
2022-09-12T22:16:03.552Z,1.33
2022-09-12T22:18:35.864Z,1.10
2022-09-12T22:21:24.814Z,1.10
2022-09-12T22:24:10.919Z,1.30
2022-09-12T22:26:47.229Z,1.20
2022-09-12T22:29:15.877Z,1.15
2022-09-12T22:31:43.433Z,0.98
2022-09-12T22:34:10.929Z,1.60
2022-09-12T22:36:39.233Z,1.17
2022-09-12T22:39:07.462Z,1.10
2022-09-12T22:41:34.950Z,1.08
2022-09-12T22:44:04.269Z,1.00
2022-09-12T22:46:32.543Z,1.45
2022-09-12T22:49:00.765Z,1.30
2022-09-12T22:51:28.431Z,1.20
2022-09-12T22:53:56.601Z,1.00
2022-09-12T22:56:24.248Z,1.10
2022-09-12T22:58:52.087Z,1.10
2022-09-12T23:01:19.842Z,1.10
2022-09-12T23:03:47.489Z,1.10
2022-09-12T23:06:15.148Z,1.38
2022-09-12T23:08:42.699Z,1.10
2022-09-12T23:11:13.155Z,1.30
2022-09-12T23:13:43.957Z,1.38
2022-09-12T23:16:16.639Z,1.30
2022-09-12T23:18:44.513Z,1.30
2022-09-12T23:21:13.548Z,1.33
2022-09-12T23:23:41.094Z,1.08
2022-09-12T23:26:15.115Z,1.20
2022-09-12T23:28:48.062Z,1.10
2022-09-12T23:31:17.260Z,1.20
2022-09-12T23:33:45.453Z,1.30
2022-09-12T23:36:16.827Z,1.23
2022-09-12T23:38:45.929Z,1.20
2022-09-12T23:41:15.166Z,1.30
2022-09-12T23:43:46.023Z,1.00
2022-09-12T23:46:15.472Z,1.80
2022-09-12T23:48:43.361Z,1.25
2022-09-12T23:51:11.524Z,1.40
2022-09-12T23:53:39.491Z,1.40
2022-09-12T23:56:07.634Z,1.30
2022-09-12T23:58:35.131Z,1.42
